7TVIL VTBD-VTSM
Flight info
| Callsign | 7TVIL |
|---|---|
| Flight time | N/A |
| Altitude | 6000 |
| Route | KASNI3C KASNI M757 NULBO/N0180F070 M757 MABKO/N0180F080 W33 UPNEP |
| Aircraft | C208/L-SDFGR/C |
Departure
| Time | 2026-04-29 17:15 |
|---|---|
| Airport | Don Mueang International Airport (VTBD) |
Arrival
| Time | N/A |
|---|---|
| Airport | Samui International Airport (VTSM) |
| Time | Latitude | Longitude | Altitude | Speed | Heading |
|---|---|---|---|---|---|
| 2026-04-29 16:59 | 13.90539 | 100.59789 | 14 ft | 0 kts | 118° |
| 2026-04-29 17:10 | 13.90538 | 100.59790 | 14 ft | 1 kts | 124° |
| 2026-04-29 17:10 | 13.90521 | 100.59799 | 14 ft | 7 kts | 153° |
| 2026-04-29 17:10 | 13.90538 | 100.59871 | 14 ft | 18 kts | 28° |
| 2026-04-29 17:11 | 13.90689 | 100.59964 | 14 ft | 31 kts | 27° |
| 2026-04-29 17:11 | 13.90914 | 100.60086 | 14 ft | 41 kts | 26° |
| 2026-04-29 17:11 | 13.91193 | 100.60240 | 14 ft | 49 kts | 29° |
| 2026-04-29 17:11 | 13.91510 | 100.60416 | 14 ft | 54 kts | 29° |
| 2026-04-29 17:12 | 13.91850 | 100.60615 | 14 ft | 58 kts | 29° |
| 2026-04-29 17:12 | 13.92207 | 100.60813 | 15 ft | 56 kts | 29° |
| 2026-04-29 17:12 | 13.92485 | 100.60965 | 14 ft | 32 kts | 28° |
| 2026-04-29 17:12 | 13.92586 | 100.61023 | 15 ft | 21 kts | 31° |
| 2026-04-29 17:13 | 13.92618 | 100.61145 | 14 ft | 14 kts | 118° |
| 2026-04-29 17:13 | 13.92561 | 100.61185 | 13 ft | 0 kts | 201° |
| 2026-04-29 17:14 | 13.92557 | 100.61184 | 14 ft | 4 kts | 201° |
| 2026-04-29 17:15 | 13.92380 | 100.61090 | 14 ft | 57 kts | 209° |
| 2026-04-29 17:15 | 13.91923 | 100.60821 | 151 ft | 85 kts | 205° |
| 2026-04-29 17:15 | 13.91354 | 100.60552 | 506 ft | 96 kts | 200° |
| 2026-04-29 17:15 | 13.90683 | 100.60266 | 796 ft | 112 kts | 203° |
| 2026-04-29 17:16 | 13.90018 | 100.59975 | 1403 ft | 91 kts | 200° |
| 2026-04-29 17:16 | 13.89479 | 100.59750 | 1863 ft | 86 kts | 198° |
| 2026-04-29 17:16 | 13.88882 | 100.59498 | 2149 ft | 98 kts | 200° |
| 2026-04-29 17:16 | 13.88247 | 100.59219 | 2421 ft | 106 kts | 203° |
| 2026-04-29 17:17 | 13.87521 | 100.58904 | 2723 ft | 120 kts | 199° |
| 2026-04-29 17:17 | 13.86742 | 100.58624 | 2977 ft | 125 kts | 181° |
| 2026-04-29 17:17 | 13.85922 | 100.58956 | 3267 ft | 131 kts | 143° |
| 2026-04-29 17:17 | 13.85127 | 100.59403 | 3529 ft | 132 kts | 165° |
| 2026-04-29 17:18 | 13.84217 | 100.59586 | 3818 ft | 135 kts | 168° |
| 2026-04-29 17:18 | 13.83260 | 100.59784 | 4000 ft | 144 kts | 168° |
| 2026-04-29 17:18 | 13.82238 | 100.59976 | 4147 ft | 152 kts | 169° |
| 2026-04-29 17:18 | 13.81171 | 100.60175 | 4303 ft | 158 kts | 169° |
| 2026-04-29 17:19 | 13.80072 | 100.60375 | 4458 ft | 163 kts | 169° |
| 2026-04-29 17:19 | 13.78956 | 100.60579 | 4605 ft | 163 kts | 169° |
| 2026-04-29 17:19 | 13.77839 | 100.60783 | 4743 ft | 162 kts | 169° |
| 2026-04-29 17:19 | 13.76724 | 100.60988 | 4884 ft | 162 kts | 169° |
| 2026-04-29 17:20 | 13.75617 | 100.61190 | 5025 ft | 162 kts | 169° |
| 2026-04-29 17:20 | 13.74504 | 100.61393 | 5157 ft | 161 kts | 169° |
| 2026-04-29 17:20 | 13.73404 | 100.61595 | 5306 ft | 162 kts | 169° |
| 2026-04-29 17:20 | 13.72293 | 100.61797 | 5444 ft | 161 kts | 169° |
| 2026-04-29 17:21 | 13.71189 | 100.61999 | 5581 ft | 161 kts | 169° |
| 2026-04-29 17:21 | 13.70102 | 100.62198 | 5725 ft | 161 kts | 169° |
| 2026-04-29 17:21 | 13.68986 | 100.62402 | 5873 ft | 160 kts | 170° |
| 2026-04-29 17:21 | 13.67880 | 100.62602 | 5894 ft | 166 kts | 170° |
| 2026-04-29 17:22 | 13.66723 | 100.62811 | 5899 ft | 171 kts | 169° |
| 2026-04-29 17:22 | 13.65542 | 100.63031 | 5904 ft | 174 kts | 169° |
| 2026-04-29 17:22 | 13.64346 | 100.63251 | 5913 ft | 175 kts | 169° |
| 2026-04-29 17:22 | 13.63540 | 100.63394 | 5907 ft | 177 kts | 169° |
| 2026-04-29 17:23 | 13.62324 | 100.63614 | 5902 ft | 178 kts | 169° |
| 2026-04-29 17:23 | 13.61110 | 100.63837 | 5909 ft | 177 kts | 169° |
| 2026-04-29 17:23 | 13.59888 | 100.64061 | 5896 ft | 178 kts | 169° |
| 2026-04-29 17:23 | 13.58674 | 100.64283 | 5895 ft | 177 kts | 169° |
| 2026-04-29 17:24 | 13.57459 | 100.64505 | 5901 ft | 178 kts | 169° |
| 2026-04-29 17:24 | 13.56236 | 100.64727 | 5902 ft | 179 kts | 169° |